KFFO

Sat, Apr 20, 2019 - 21:56 EDT
Clear
TEMP
54°F
FEELS LIKE
54°F
HUMIDITY
70%
DEW POINT
44°F
WIND  
0
MPH
BAROMETER
30.17 IN

METAR KFFO 220156Z AUTO 00000KT 10SM CLR 12/07 A3017 RMK AO2 SLP222 T01220069

ADDS  |   NWS

MoDaWx  |   KI19  |   KFFO
Free Web Hosting